Time;durP1;ratioP1;P1;durP2;ratioP2;P2;SDS_P1;SDS_P2;PMS_P1;PMS_P2;Temp;Humidity;BMP_temperature;BMP_pressure;BME280_temperature;BME280_humidity;BME280_pressure;Samples;Min_cycle;Max_cycle;Signal;HPM_P1;HPM_P2
2023/02/03 00:02:01;;;;;;;5.28;1.40;;;7.90;59.40;;;3.17;85.34;96960.03;4960473;28;20036;-55
2023/02/03 00:04:27;;;;;;;7.93;1.90;;;7.90;59.40;;;3.14;85.05;96948.03;4962258;28;20038;-54
2023/02/03 00:06:56;;;;;;;6.30;1.40;;;7.90;59.50;;;3.16;85.05;96950.47;4974346;28;20038;-56
2023/02/03 00:09:22;;;;;;;7.57;2.05;;;7.90;59.50;;;3.16;84.75;96948.66;4964652;28;20038;-58
2023/02/03 00:11:48;;;;;;;6.57;1.67;;;7.90;59.50;;;3.18;85.15;96954.56;4962137;28;20036;-56
2023/02/03 00:14:14;;;;;;;6.07;2.10;;;7.90;59.50;;;3.18;84.60;96946.66;4962468;28;20148;-54
2023/02/03 00:16:40;;;;;;;9.20;1.73;;;7.90;59.60;;;3.13;85.32;96941.13;4962897;28;20061;-55
2023/02/03 00:19:12;;;;;;;6.43;1.55;;;7.90;59.50;;;3.10;85.09;96938.03;4962477;28;20165;-51
2023/02/03 00:21:37;;;;;;;7.40;1.80;;;7.90;59.50;;;3.08;85.15;96940.88;4978481;28;20025;-53
2023/02/03 00:24:04;;;;;;;6.95;1.67;;;7.80;59.40;;;3.05;85.46;96927.25;4961759;28;21133;-53
2023/02/03 00:26:32;;;;;;;6.22;1.83;;;7.80;59.40;;;2.98;85.14;96940.34;4961262;28;20032;-56
2023/02/03 00:28:59;;;;;;;11.35;1.90;;;7.80;59.40;;;2.88;85.60;96945.06;4958588;28;20473;-55
2023/02/03 00:31:25;;;;;;;7.22;2.08;;;7.70;59.40;;;2.80;86.30;96943.34;4960073;28;20049;-56
2023/02/03 00:33:56;;;;;;;7.25;2.00;;;7.60;59.30;;;2.75;86.24;96943.06;4959309;28;20046;-50
2023/02/03 00:36:25;;;;;;;7.65;1.88;;;7.50;59.40;;;2.67;86.84;96941.34;4962617;28;20071;-57
2023/02/03 00:38:51;;;;;;;4.93;1.40;;;7.50;59.50;;;2.58;87.50;96946.88;4975926;28;20129;-57
2023/02/03 00:41:19;;;;;;;8.82;1.83;;;7.40;59.60;;;2.54;87.39;96949.88;4961608;28;20030;-58
2023/02/03 00:43:51;;;;;;;5.70;1.90;;;7.40;59.60;;;2.48;87.62;96961.13;4961408;28;20041;-52
2023/02/03 00:46:17;;;;;;;5.87;1.80;;;7.30;59.70;;;2.44;87.76;96961.66;4962126;28;20056;-56
2023/02/03 00:48:43;;;;;;;8.73;1.85;;;7.30;59.80;;;2.43;87.54;96965.28;4960872;28;20289;-55
2023/02/03 00:51:11;;;;;;;10.23;1.80;;;7.30;59.90;;;2.36;87.97;96961.75;4960924;28;20081;-56
2023/02/03 00:53:37;;;;;;;8.52;1.85;;;7.20;59.90;;;2.31;88.08;96973.59;4942842;28;20030;-53
2023/02/03 00:56:11;;;;;;;4.93;1.60;;;7.10;59.90;;;2.29;88.09;96977.41;4963834;28;20076;-55
2023/02/03 00:58:40;;;;;;;7.20;1.83;;;7.10;60.00;;;2.25;87.86;96973.50;4960307;28;20229;-53
2023/02/03 01:01:07;;;;;;;5.93;1.90;;;7.00;60.00;;;2.17;88.38;96973.59;4960488;28;20156;-56
2023/02/03 01:03:33;;;;;;;4.88;1.80;;;7.00;60.10;;;2.13;89.06;96975.75;4978534;28;20029;-55
2023/02/03 01:06:20;;;;;;;8.20;2.22;;;7.00;60.20;;;2.09;89.16;96975.25;4962752;28;20029;-57
2023/02/03 01:08:48;;;;;;;5.38;1.33;;;6.90;60.40;;;2.08;88.95;96978.91;4962372;28;20048;-57
2023/02/03 01:11:28;;;;;;;6.72;1.60;;;6.90;60.50;;;2.10;88.88;96976.09;4963164;28;20038;-52
2023/02/03 01:13:59;;;;;;;6.18;1.75;;;6.90;60.60;;;2.10;88.54;96984.00;4960832;28;20026;-52
2023/02/03 01:16:29;;;;;;;3.30;1.70;;;6.80;60.60;;;2.08;88.65;96992.03;4962197;28;20026;-56
2023/02/03 01:18:56;;;;;;;5.28;1.60;;;6.80;60.70;;;2.08;89.19;97005.19;4960218;28;20412;-57
2023/02/03 01:21:25;;;;;;;9.15;2.05;;;6.80;60.80;;;2.08;88.49;97004.38;4960085;28;20034;-58
2023/02/03 01:23:53;;;;;;;6.75;1.90;;;6.90;60.90;;;2.12;88.75;97010.91;4958370;28;20036;-57
2023/02/03 01:26:22;;;;;;;6.05;1.77;;;6.90;61.00;;;2.15;88.26;97015.81;4976789;28;20172;-58
2023/02/03 01:28:58;;;;;;;6.15;1.80;;;6.90;61.00;;;2.18;88.35;97010.19;4960334;28;20034;-57
2023/02/03 01:31:39;;;;;;;6.22;1.48;;;7.00;61.10;;;2.22;88.49;97003.59;4961569;28;20354;-52
2023/02/03 01:34:12;;;;;;;5.25;1.83;;;7.00;61.10;;;2.27;87.96;97003.88;4961389;28;20046;-57
2023/02/03 01:36:38;;;;;;;5.78;1.65;;;7.00;61.00;;;2.35;87.88;97007.41;4958379;28;20036;-55
2023/02/03 01:39:05;;;;;;;6.97;1.73;;;7.10;61.10;;;2.39;87.41;97017.44;4975530;28;20097;-57
2023/02/03 01:41:37;;;;;;;4.82;1.50;;;7.20;61.10;;;2.44;87.40;97012.44;4960576;28;20026;-53
2023/02/03 01:44:50;;;;;;;8.73;1.60;;;7.20;61.00;;;2.48;86.86;97016.34;4959599;28;20811;-57
2023/02/03 01:47:31;;;;;;;4.18;1.38;;;7.30;60.90;;;2.48;87.22;97005.84;4961098;28;20408;-53
2023/02/03 01:50:15;;;;;;;5.63;1.33;;;7.30;60.90;;;2.53;86.72;97015.81;4961325;28;20044;-53
2023/02/03 01:52:55;;;;;;;6.25;1.35;;;7.30;60.90;;;2.58;86.38;97012.66;4976370;28;20042;-55
2023/02/03 01:55:33;;;;;;;10.45;1.77;;;7.30;60.80;;;2.61;86.25;97009.66;4959586;28;20029;-57
2023/02/03 01:58:19;;;;;;;5.32;1.40;;;7.40;60.80;;;2.64;86.13;97004.88;4977006;28;20026;-56
2023/02/03 02:00:48;;;;;;;4.40;1.30;;;7.40;60.70;;;2.68;85.65;96994.78;4959730;28;20033;-57
2023/02/03 02:03:17;;;;;;;5.75;1.75;;;7.40;60.70;;;2.70;85.55;96995.44;4976401;28;20018;-58
2023/02/03 02:05:59;;;;;;;5.82;1.58;;;7.50;60.60;;;2.72;85.58;97003.94;4960063;28;20046;-57
2023/02/03 02:08:26;;;;;;;4.88;1.70;;;7.50;60.60;;;2.73;85.32;97013.50;4975933;28;20026;-56
2023/02/03 02:10:53;;;;;;;5.97;1.52;;;7.50;60.50;;;2.75;85.09;97019.38;4961406;28;20037;-57
2023/02/03 02:13:21;;;;;;;8.13;1.92;;;7.60;60.60;;;2.76;84.94;97016.59;4958970;28;20377;-55
2023/02/03 02:16:17;;;;;;;3.42;1.10;;;7.60;60.50;;;2.78;84.81;97013.75;4943772;28;20091;-57
2023/02/03 02:19:39;;;;;;;6.00;1.60;;;7.60;60.40;;;2.83;84.49;97023.75;4974308;28;20491;-57
2023/02/03 02:25:10;;;;;;;4.38;1.40;;;7.60;60.30;;;2.82;84.05;97017.69;4954329;28;20088;-53
2023/02/03 02:28:30;;;;;;;6.50;1.40;;;7.60;60.30;;;2.82;84.06;97009.78;4957243;28;20042;-54
2023/02/03 02:31:42;;;;;;;5.60;1.38;;;7.60;60.20;;;2.85;83.81;97016.47;4959189;28;20026;-53
2023/02/03 02:34:42;;;;;;;5.85;1.40;;;7.60;60.20;;;2.82;84.23;97012.41;4954451;28;20384;-56
2023/02/03 02:38:11;;;;;;;5.43;1.25;;;7.70;60.30;;;2.87;83.90;96988.19;4957815;28;20045;-50
2023/02/03 02:41:06;;;;;;;3.47;1.23;;;7.70;60.20;;;2.92;83.76;96988.47;4961190;28;20436;-55
2023/02/03 02:44:02;;;;;;;6.15;1.40;;;7.60;60.10;;;2.93;83.54;96980.38;4963169;28;20491;-55
2023/02/03 02:46:47;;;;;;;5.63;1.45;;;7.70;60.10;;;2.90;83.30;96954.41;4964854;28;20022;-55
2023/02/03 02:49:24;;;;;;;4.38;1.40;;;7.70;60.10;;;2.85;83.21;96942.78;4967624;28;20040;-53
2023/02/03 02:51:54;;;;;;;5.82;1.42;;;7.70;60.10;;;2.87;84.10;96938.97;4967961;28;20393;-54
2023/02/03 02:54:27;;;;;;;3.70;1.50;;;7.70;60.00;;;2.88;83.50;96947.69;4949886;28;20041;-54
2023/02/03 02:57:02;;;;;;;7.13;1.60;;;7.70;60.00;;;2.90;82.82;96954.41;4959962;28;20022;-52
2023/02/03 02:59:28;;;;;;;7.50;1.67;;;7.70;60.00;;;2.94;82.71;96965.38;4943590;28;20373;-53
2023/02/03 03:01:57;;;;;;;7.80;1.50;;;7.80;60.00;;;2.97;81.54;96960.56;4960757;28;20030;-51
2023/02/03 03:04:29;;;;;;;4.80;1.58;;;7.70;59.90;;;3.06;81.87;96960.47;4959752;28;20473;-53
2023/02/03 03:07:22;;;;;;;5.30;1.42;;;7.80;59.90;;;3.08;81.30;96950.59;4958950;28;20038;-56
2023/02/03 03:10:02;;;;;;;4.13;1.40;;;7.80;59.80;;;3.13;80.85;96937.66;4959853;28;20034;-55
2023/02/03 03:12:40;;;;;;;4.60;1.35;;;7.90;59.80;;;3.16;81.17;96945.19;4940186;28;20101;-52
2023/02/03 03:15:21;;;;;;;4.20;1.10;;;7.90;59.70;;;3.19;80.62;96956.19;4948314;28;20072;-51
2023/02/03 03:18:29;;;;;;;6.93;1.48;;;7.90;59.60;;;3.18;81.01;96965.09;4958375;28;20096;-51
2023/02/03 03:21:05;;;;;;;4.95;1.50;;;8.00;59.60;;;3.18;80.95;96961.66;4956439;28;20042;-51
2023/02/03 03:23:43;;;;;;;4.00;1.10;;;8.00;59.60;;;3.22;80.86;96957.63;4966753;28;20054;-50
2023/02/03 03:26:38;;;;;;;3.30;1.30;;;8.00;59.50;;;3.22;80.55;96955.81;4946716;28;20133;-50
2023/02/03 03:29:39;;;;;;;3.38;1.17;;;8.00;59.40;;;3.22;80.25;96957.63;4977995;28;20393;-51
2023/02/03 03:32:06;;;;;;;4.60;1.80;;;8.10;59.40;;;3.23;80.36;96951.38;4979251;28;20104;-54
2023/02/03 03:34:33;;;;;;;2.22;1.10;;;8.00;59.40;;;3.19;80.16;96943.00;4971707;28;20061;-50
2023/02/03 03:37:28;;;;;;;2.90;1.20;;;8.00;59.30;;;3.20;79.69;96941.22;4956057;28;20048;-54
2023/02/03 03:40:00;;;;;;;2.95;0.95;;;8.10;59.20;;;3.21;79.91;96938.38;4954417;28;20018;-52
2023/02/03 03:42:56;;;;;;;5.82;1.52;;;8.00;59.20;;;3.18;79.57;96922.16;4940535;28;20026;-50
2023/02/03 03:46:01;;;;;;;3.80;1.38;;;8.00;59.10;;;3.19;79.51;96921.94;4956351;28;20019;-53
2023/02/03 03:48:46;;;;;;;6.75;1.20;;;8.10;59.20;;;3.19;79.15;96932.47;4958615;28;20022;-53
2023/02/03 03:51:55;;;;;;;4.05;0.95;;;8.00;59.10;;;3.22;79.60;96952.38;4955972;28;20073;-56
2023/02/03 03:54:30;;;;;;;7.65;1.33;;;8.00;59.00;;;3.20;78.65;96954.38;4956228;28;20473;-54
2023/02/03 03:57:17;;;;;;;3.15;1.10;;;8.00;59.00;;;3.23;79.22;96949.56;4958406;28;20018;-50
2023/02/03 03:59:48;;;;;;;3.13;1.05;;;8.00;59.00;;;3.22;79.60;96936.56;4972954;28;20727;-53
2023/02/03 04:02:25;;;;;;;2.65;0.90;;;8.10;59.00;;;3.25;79.31;96939.66;4949306;28;20042;-52
2023/02/03 04:04:54;;;;;;;3.40;1.13;;;8.10;59.00;;;3.21;79.94;96937.56;4955816;28;20026;-54
2023/02/03 04:07:20;;;;;;;3.03;1.30;;;8.10;59.00;;;3.20;79.30;96930.69;4964661;28;20452;-55
2023/02/03 04:09:46;;;;;;;7.07;1.23;;;8.10;59.00;;;3.17;79.27;96921.34;4974955;28;20126;-51
2023/02/03 04:12:24;;;;;;;3.03;1.20;;;8.10;58.90;;;3.17;79.39;96916.06;4956164;28;20032;-51
2023/02/03 04:14:50;;;;;;;4.63;1.38;;;8.10;58.80;;;3.16;78.83;96918.88;4968186;28;20026;-50
2023/02/03 04:17:18;;;;;;;5.63;1.60;;;8.10;58.80;;;3.16;78.94;96910.97;4969447;28;20451;-54
2023/02/03 04:19:46;;;;;;;8.43;1.70;;;8.00;58.70;;;3.20;78.82;96907.81;4956170;28;20049;-53
2023/02/03 04:22:15;;;;;;;3.22;1.23;;;8.10;59.40;;;3.17;78.88;96891.56;4972500;28;20060;-53
2023/02/03 04:24:43;;;;;;;3.00;1.40;;;8.00;58.70;;;3.16;79.22;96884.63;4958163;28;20108;-53
2023/02/03 04:27:11;;;;;;;8.00;1.63;;;8.10;58.70;;;3.17;78.66;96891.56;4965283;28;20029;-53
2023/02/03 04:29:37;;;;;;;2.88;1.20;;;8.00;58.60;;;3.16;79.21;96895.97;4955991;28;20038;-53
2023/02/03 04:32:03;;;;;;;4.78;1.73;;;8.00;58.60;;;3.14;79.13;96907.72;4970601;28;20073;-54
2023/02/03 04:34:29;;;;;;;9.93;1.60;;;8.00;58.60;;;3.14;79.21;96908.53;4954798;28;21709;-55
2023/02/03 04:36:55;;;;;;;5.30;1.55;;;8.00;58.60;;;3.18;79.16;96922.16;4956135;28;20049;-53
2023/02/03 04:39:21;;;;;;;5.13;1.75;;;8.00;58.60;;;3.14;78.67;96905.09;4957971;28;20172;-55
2023/02/03 04:41:47;;;;;;;2.95;1.30;;;8.00;58.60;;;3.16;79.27;96895.97;4951910;28;20011;-52
2023/02/03 04:44:13;;;;;;;5.07;1.10;;;7.90;58.60;;;3.17;79.10;96896.81;4956191;28;20026;-55
2023/02/03 04:46:38;;;;;;;5.75;1.25;;;8.00;58.60;;;3.14;79.16;96889.28;4952456;28;20030;-52
2023/02/03 04:49:05;;;;;;;5.20;1.30;;;8.00;58.60;;;3.07;79.42;96891.00;4959860;28;20026;-57
2023/02/03 04:51:31;;;;;;;2.45;1.20;;;7.90;58.60;;;3.08;79.37;96900.56;4955309;28;20562;-56
2023/02/03 04:53:57;;;;;;;4.60;1.35;;;7.90;58.60;;;3.11;79.46;96913.38;4951529;28;20026;-54
2023/02/03 04:56:22;;;;;;;2.50;1.10;;;7.90;58.60;;;3.10;79.14;96909.06;4944434;28;20030;-54
2023/02/03 04:58:48;;;;;;;3.53;1.13;;;7.90;58.60;;;3.10;79.07;96922.25;4954161;28;20103;-53
2023/02/03 05:01:16;;;;;;;4.10;1.30;;;7.90;58.60;;;3.14;79.02;96939.31;4959323;28;20026;-54
2023/02/03 05:03:42;;;;;;;7.25;1.45;;;7.90;58.60;;;3.13;79.43;96933.22;4974385;28;20022;-54
2023/02/03 05:06:08;;;;;;;4.50;1.30;;;7.90;58.60;;;3.13;78.55;96943.75;4956503;28;20540;-53
2023/02/03 05:08:36;;;;;;;7.60;1.40;;;7.90;58.60;;;3.16;78.87;96940.75;4958275;28;20500;-56
2023/02/03 05:11:02;;;;;;;2.67;1.17;;;7.90;58.60;;;3.13;79.30;96937.66;4969515;28;20575;-53
2023/02/03 05:13:31;;;;;;;5.93;1.30;;;7.90;58.50;;;3.16;79.22;96942.56;4951120;28;20121;-55
2023/02/03 05:15:57;;;;;;;3.38;1.30;;;8.00;58.60;;;3.15;78.77;96944.38;4955468;28;20026;-52
2023/02/03 05:18:23;;;;;;;6.57;1.38;;;8.00;58.60;;;3.16;79.00;96953.09;4944364;28;20030;-51
2023/02/03 05:20:49;;;;;;;3.90;1.35;;;8.00;58.50;;;3.19;79.09;96969.34;4955365;28;20034;-52
2023/02/03 05:23:15;;;;;;;4.45;1.35;;;8.00;59.10;;;3.18;78.57;96965.09;4955432;28;20517;-54
2023/02/03 05:25:43;;;;;;;4.95;1.40;;;8.00;58.50;;;3.19;78.70;96966.72;4955949;28;20038;-55
2023/02/03 05:28:09;;;;;;;3.38;1.10;;;8.00;58.50;;;3.20;78.56;96963.09;4954254;28;20030;-53
2023/02/03 05:30:38;;;;;;;3.65;1.33;;;8.00;58.50;;;3.20;78.79;96963.09;4958220;28;20061;-52
2023/02/03 05:33:04;;;;;;;2.88;1.33;;;8.00;58.40;;;3.16;79.40;96953.91;4959182;28;20080;-51
2023/02/03 05:35:30;;;;;;;4.63;1.15;;;8.00;58.50;;;3.21;79.52;96958.66;4952824;28;20026;-53
2023/02/03 05:37:58;;;;;;;4.10;1.20;;;8.00;58.50;;;3.20;78.90;96949.13;4939074;28;20037;-55
2023/02/03 05:43:11;;;;;;;7.78;1.90;;;8.00;58.40;;;3.18;80.02;96959.00;4953562;28;20518;-53
2023/02/03 05:45:37;;;;;;;4.35;1.75;;;8.00;58.50;;;3.19;79.54;96977.25;4954002;28;20018;-53
2023/02/03 05:48:03;;;;;;;4.72;1.52;;;8.00;58.50;;;3.20;79.19;96988.63;4975395;28;20452;-50
2023/02/03 05:50:33;;;;;;;6.80;1.30;;;8.00;58.50;;;3.16;79.41;96987.34;4971795;28;20037;-49
2023/02/03 05:53:02;;;;;;;7.40;1.42;;;8.00;58.50;;;3.20;79.47;97001.78;4947488;28;20089;-49
2023/02/03 05:55:30;;;;;;;5.30;1.58;;;8.00;58.50;;;3.21;79.60;97006.03;4956250;28;20040;-50
2023/02/03 05:57:57;;;;;;;7.18;1.63;;;8.00;58.50;;;3.20;79.18;97007.88;4959394;28;20058;-49
2023/02/03 06:00:24;;;;;;;7.55;1.50;;;8.00;58.50;;;3.21;79.70;97013.94;4954432;28;20045;-49
2023/02/03 06:03:01;;;;;;;2.40;1.25;;;8.10;58.50;;;3.19;79.20;97000.94;4957954;28;20440;-52
2023/02/03 06:05:30;;;;;;;3.13;1.50;;;8.10;58.50;;;3.20;79.79;96992.06;4950560;28;20040;-52
2023/02/03 06:07:56;;;;;;;3.10;1.02;;;8.10;58.50;;;3.17;79.88;96965.28;4970157;28;20021;-54
2023/02/03 06:10:26;;;;;;;2.75;1.05;;;8.00;58.50;;;3.16;79.78;96950.47;4943746;28;21196;-53
2023/02/03 06:12:55;;;;;;;4.68;1.48;;;8.00;58.40;;;3.11;79.80;96937.88;4960933;28;20022;-49
2023/02/03 06:15:26;;;;;;;8.80;1.58;;;8.10;58.50;;;3.06;79.57;96936.78;4960731;28;20034;-55
2023/02/03 06:17:52;;;;;;;3.47;1.40;;;8.00;58.50;;;3.07;79.78;96933.97;4958233;28;20104;-53
2023/02/03 06:20:19;;;;;;;4.68;1.23;;;8.00;58.50;;;3.02;80.17;96938.97;4930542;28;20046;-51
2023/02/03 06:22:45;;;;;;;4.45;1.63;;;8.00;58.50;;;3.06;80.18;96942.06;4960938;28;20696;-57
2023/02/03 06:25:13;;;;;;;9.38;1.70;;;8.00;58.50;;;3.08;80.14;96922.44;4960735;28;20034;-55
2023/02/03 06:27:41;;;;;;;4.55;1.35;;;8.00;58.50;;;3.05;79.97;96937.78;4974227;28;20049;-52
2023/02/03 06:30:10;;;;;;;5.43;1.52;;;8.00;58.50;;;3.09;80.41;96936.41;4961093;28;20099;-53
2023/02/03 06:32:36;;;;;;;6.35;1.42;;;8.00;58.50;;;3.08;79.64;96945.31;4977053;28;20022;-52
2023/02/03 06:35:02;;;;;;;4.00;1.38;;;8.00;58.60;;;3.07;79.77;96960.31;4955253;28;20038;-50
2023/02/03 06:37:28;;;;;;;4.93;1.45;;;7.90;58.50;;;3.11;79.94;96971.28;4975464;28;20933;-50
2023/02/03 06:39:54;;;;;;;3.83;1.35;;;8.00;58.60;;;3.10;80.01;96969.63;4957864;28;20036;-55
2023/02/03 06:42:20;;;;;;;4.80;1.63;;;7.90;58.60;;;3.11;80.69;96964.19;4959890;28;20472;-52
2023/02/03 06:44:46;;;;;;;4.13;1.23;;;7.90;59.20;;;3.05;80.17;96982.56;4962240;28;20123;-52
2023/02/03 06:47:11;;;;;;;7.05;1.60;;;7.90;58.60;;;3.05;79.52;96998.34;4973131;28;20030;-54
2023/02/03 06:49:37;;;;;;;5.82;1.50;;;7.90;58.60;;;3.04;80.29;96997.53;4956617;28;20045;-55
2023/02/03 06:52:03;;;;;;;5.93;1.23;;;7.90;58.60;;;3.09;80.10;96994.34;4970685;28;20026;-51
2023/02/03 06:54:29;;;;;;;5.32;1.50;;;8.00;58.60;;;3.12;80.23;96999.25;4962622;28;20023;-55
2023/02/03 06:56:55;;;;;;;3.72;1.30;;;8.00;58.60;;;3.08;79.77;97000.63;4963156;28;20025;-53
2023/02/03 06:59:21;;;;;;;2.35;1.05;;;8.00;58.70;;;3.11;79.66;97006.34;4960502;28;20028;-53
2023/02/03 07:01:50;;;;;;;3.17;1.10;;;8.00;58.50;;;3.10;79.98;96993.34;4959051;28;20113;-51
2023/02/03 07:04:16;;;;;;;4.18;1.52;;;8.00;58.50;;;3.09;79.62;96992.53;4955707;28;20018;-53
2023/02/03 07:06:42;;;;;;;7.90;2.00;;;8.00;58.40;;;3.07;79.83;97009.50;4976575;28;20022;-49
2023/02/03 07:09:08;;;;;;;6.45;1.30;;;8.10;58.40;;;3.11;79.64;97014.22;4957779;28;20038;-52
2023/02/03 07:11:36;;;;;;;5.35;1.42;;;8.00;58.40;;;3.11;79.01;97019.50;4954812;28;20060;-51
2023/02/03 07:14:05;;;;;;;4.80;2.08;;;8.00;58.40;;;3.10;79.47;97028.38;4956499;28;20018;-50
2023/02/03 07:16:33;;;;;;;9.23;2.33;;;8.00;58.40;;;3.11;79.46;97029.22;4955530;28;20053;-52
2023/02/03 07:18:59;;;;;;;6.47;1.52;;;8.00;58.40;;;3.07;79.39;97028.75;4949644;28;20386;-50
2023/02/03 07:21:25;;;;;;;4.82;1.40;;;8.00;58.40;;;3.07;79.47;97018.22;4954544;28;20084;-51
2023/02/03 07:23:51;;;;;;;3.63;1.70;;;8.10;58.40;;;3.09;79.31;97018.03;4945193;28;20344;-52
2023/02/03 07:26:17;;;;;;;4.95;1.50;;;8.10;58.40;;;3.10;79.28;97023.09;4923876;28;20034;-52
2023/02/03 07:28:44;;;;;;;5.15;1.58;;;8.10;58.30;;;3.17;79.29;97044.28;4924960;28;20019;-52
2023/02/03 07:31:10;;;;;;;12.63;1.85;;;8.10;58.20;;;3.13;79.39;97028.00;4936611;28;20042;-53
2023/02/03 07:33:38;;;;;;;5.70;1.63;;;8.10;58.20;;;3.17;78.95;97029.31;4934783;28;20019;-52
2023/02/03 07:36:09;;;;;;;8.90;1.95;;;8.20;58.20;;;3.18;79.50;97038.81;4938772;28;20030;-50
2023/02/03 07:38:40;;;;;;;8.77;2.00;;;8.10;58.10;;;3.25;79.36;97036.28;4936980;28;20041;-54
2023/02/03 07:41:07;;;;;;;6.72;1.45;;;8.20;58.20;;;3.20;79.17;97036.03;4938335;28;20516;-50
2023/02/03 07:43:35;;;;;;;4.10;1.65;;;8.30;58.20;;;3.21;78.54;97006.84;4918838;28;20109;-54
2023/02/03 07:46:02;;;;;;;3.60;1.33;;;8.40;58.10;;;3.22;78.92;97003.22;4924324;28;20134;-51
2023/02/03 07:48:28;;;;;;;7.50;2.22;;;8.40;58.00;;;3.29;78.86;97007.75;4937204;28;20082;-52
2023/02/03 07:50:54;;;;;;;7.65;1.77;;;8.50;58.00;;;3.38;78.38;96996.94;4923960;28;20038;-52
2023/02/03 07:53:20;;;;;;;10.98;2.53;;;8.60;57.80;;;3.45;78.01;96976.75;4933781;28;20022;-56
2023/02/03 07:55:46;;;;;;;5.43;2.25;;;8.70;57.70;;;3.59;77.86;96977.72;4936252;28;20034;-54
2023/02/03 07:58:12;;;;;;;7.00;1.50;;;8.80;57.60;;;3.76;77.41;96988.03;4917156;28;20529;-54
2023/02/03 08:00:41;;;;;;;2.83;1.65;;;9.00;57.60;;;3.74;76.38;96998.75;4932329;28;20041;-51
2023/02/03 08:03:06;;;;;;;7.43;1.67;;;9.10;57.50;;;3.75;76.71;97020.66;4925296;28;20026;-56
2023/02/03 08:05:32;;;;;;;3.92;1.40;;;9.10;57.20;;;3.77;76.24;97019.47;4926811;28;20022;-53
2023/02/03 08:08:01;;;;;;;5.40;1.63;;;9.10;57.10;;;3.84;76.22;96996.63;4938681;28;20038;-50
2023/02/03 08:10:27;;;;;;;7.72;1.67;;;9.10;57.00;;;3.87;75.71;96990.16;4936618;28;20046;-55
2023/02/03 08:12:55;;;;;;;3.70;1.30;;;9.20;56.90;;;3.91;75.62;96981.69;4939692;28;20033;-53
2023/02/03 08:15:24;;;;;;;6.22;1.40;;;9.20;56.80;;;3.93;75.15;96984.97;4920059;28;20093;-52
2023/02/03 08:17:50;;;;;;;6.03;1.42;;;9.30;56.70;;;3.93;75.22;96968.34;4937051;28;20029;-51
2023/02/03 08:20:19;;;;;;;5.57;1.40;;;9.40;56.60;;;3.95;75.09;96979.50;4929310;28;20026;-49
2023/02/03 08:22:45;;;;;;;2.80;1.38;;;9.40;56.40;;;3.94;74.91;96991.03;4952509;23;20106;-56
2023/02/03 08:25:12;;;;;;;5.38;1.50;;;9.40;56.20;;;3.97;75.27;97001.22;4957120;28;20278;-58
2023/02/03 08:27:41;;;;;;;4.68;1.30;;;9.50;56.10;;;4.01;74.58;96991.09;4960453;28;20517;-51
2023/02/03 08:30:13;;;;;;;5.88;1.23;;;9.60;56.10;;;4.05;73.80;97026.66;4978687;28;20034;-57
2023/02/03 08:32:40;;;;;;;6.03;1.75;;;9.60;55.90;;;4.17;73.61;97020.69;4942205;28;20048;-56
2023/02/03 08:35:09;;;;;;;6.85;1.17;;;9.70;55.90;;;4.26;72.29;97016.13;4976693;28;20033;-54
2023/02/03 08:37:38;;;;;;;5.13;1.48;;;9.80;55.70;;;4.38;72.25;97008.47;4974635;28;20018;-54
2023/02/03 08:40:05;;;;;;;7.20;1.60;;;10.00;56.10;;;4.47;71.81;97006.53;4980120;28;20428;-56
2023/02/03 08:42:37;;;;;;;3.67;1.65;;;10.10;55.40;;;4.64;71.04;97000.78;4977890;28;20022;-53
2023/02/03 08:45:05;;;;;;;5.13;1.40;;;10.20;55.20;;;4.82;70.85;96999.47;4980003;28;20167;-58
2023/02/03 08:47:35;;;;;;;2.65;1.23;;;10.30;55.10;;;4.97;69.33;96996.72;4960803;28;20038;-52
2023/02/03 08:50:03;;;;;;;7.30;1.35;;;10.50;55.00;;;5.08;69.26;97007.56;4978997;28;20037;-56
2023/02/03 08:52:31;;;;;;;3.55;1.27;;;10.80;54.70;;;5.27;68.00;96997.28;4980155;28;20036;-57
2023/02/03 08:55:03;;;;;;;4.72;1.50;;;11.00;54.40;;;5.29;67.79;97003.16;4960418;28;20044;-54
2023/02/03 08:57:35;;;;;;;3.43;1.20;;;11.20;54.00;;;5.41;67.84;96992.88;4976162;28;20083;-52
2023/02/03 09:00:06;;;;;;;3.10;1.67;;;11.30;53.80;;;5.56;67.12;97001.47;4959561;28;20564;-55
2023/02/03 09:02:34;;;;;;;4.05;1.50;;;11.40;53.70;;;5.55;66.95;97008.59;4973836;28;20107;-53
2023/02/03 09:05:01;;;;;;;2.63;1.20;;;11.50;53.50;;;5.60;66.16;97025.69;4978635;28;20052;-57
2023/02/03 09:07:27;;;;;;;4.43;1.33;;;11.50;53.20;;;5.68;65.10;97026.31;4977056;28;20386;-57
2023/02/03 09:09:53;;;;;;;3.00;1.40;;;11.60;53.00;;;5.83;65.26;97014.75;4979562;28;20030;-56
2023/02/03 09:12:20;;;;;;;4.35;1.40;;;11.70;52.80;;;6.01;65.45;97007.91;4977838;28;20583;-57
2023/02/03 09:14:48;;;;;;;3.55;1.30;;;12.00;52.60;;;6.11;62.65;97004.91;4980166;28;20037;-56
2023/02/03 09:17:14;;;;;;;3.53;1.17;;;12.30;52.00;;;6.39;62.22;97006.53;4957633;28;20115;-51
2023/02/03 09:19:40;;;;;;;5.30;1.40;;;12.70;51.70;;;6.47;61.64;97012.44;4978196;28;20112;-56
2023/02/03 09:22:06;;;;;;;3.88;1.15;;;12.90;51.10;;;6.66;61.11;97010.00;4959112;28;20025;-56
2023/02/03 09:24:32;;;;;;;2.25;1.10;;;13.20;50.70;;;6.77;61.12;97017.34;4973389;28;20076;-56
2023/02/03 09:26:59;;;;;;;2.13;1.40;;;13.30;50.40;;;6.66;60.20;97015.31;4959265;28;20124;-55
2023/02/03 09:29:26;;;;;;;7.93;1.30;;;13.50;49.90;;;6.69;61.05;97010.41;4980697;28;20022;-52
2023/02/03 09:31:52;;;;;;;2.80;1.30;;;13.60;49.30;;;6.81;60.10;97020.38;4979043;28;20090;-57
2023/02/03 09:34:21;;;;;;;2.53;1.17;;;13.70;48.90;;;6.86;59.37;97007.31;4962032;28;20097;-52
2023/02/03 09:36:50;;;;;;;3.78;1.23;;;13.90;48.30;;;7.05;60.32;97003.00;4947311;28;20038;-52
2023/02/03 09:39:16;;;;;;;5.55;1.30;;;14.00;47.90;;;7.25;58.69;96985.25;4978639;28;20021;-55
2023/02/03 09:42:12;;;;;;;4.28;1.50;;;14.30;47.80;;;7.45;57.53;96971.09;4976475;28;20344;-55
2023/02/03 09:45:20;;;;;;;3.10;1.20;;;14.50;47.30;;;7.38;57.60;96979.06;4981112;28;20089;-56
2023/02/03 09:47:52;;;;;;;4.18;1.35;;;14.70;46.60;;;7.28;58.65;96982.16;4958482;28;20033;-52
2023/02/03 09:50:32;;;;;;;3.38;1.23;;;14.60;46.00;;;7.09;58.85;96991.00;4945620;28;20099;-52
2023/02/03 09:53:26;;;;;;;6.40;1.38;;;14.50;45.70;;;6.94;58.17;96989.38;4963184;28;20045;-51
2023/02/03 09:55:58;;;;;;;2.42;1.33;;;14.30;45.50;;;6.94;58.13;96992.03;4975374;28;20044;-54
2023/02/03 09:58:33;;;;;;;4.03;1.88;;;14.20;45.80;;;7.25;57.67;96987.88;4975030;28;20492;-58
2023/02/03 10:01:12;;;;;;;3.13;1.20;;;14.30;45.70;;;7.60;56.93;96976.94;4976515;28;20392;-54
2023/02/03 10:04:33;;;;;;;4.60;1.50;;;14.60;45.60;;;7.70;56.31;96992.38;4982038;28;20092;-56
2023/02/03 10:07:24;;;;;;;4.55;1.50;;;14.80;45.40;;;7.84;56.08;97002.72;4951765;28;20044;-58
2023/02/03 10:10:34;;;;;;;3.22;1.45;;;15.10;45.00;;;8.23;56.24;97000.03;4972137;28;20037;-55
2023/02/03 10:13:30;;;;;;;1.90;1.20;;;15.40;44.90;;;8.29;55.98;96999.19;4952189;28;20356;-50
2023/02/03 10:16:49;;;;;;;2.20;1.35;;;15.70;44.70;;;8.43;54.50;96998.09;4976379;28;20474;-52
2023/02/03 10:19:28;;;;;;;2.88;1.40;;;16.00;44.20;;;8.93;53.96;97006.03;4936233;28;20112;-57
2023/02/03 10:22:00;;;;;;;8.32;1.90;;;16.30;43.80;;;8.91;53.79;97001.97;4958050;28;20045;-58
2023/02/03 10:24:47;;;;;;;3.60;1.40;;;16.60;43.30;;;8.84;53.88;96998.56;4982882;28;20048;-55
2023/02/03 10:27:21;;;;;;;5.88;1.85;;;16.80;42.60;;;9.12;52.81;97000.72;4994247;28;20064;-55
2023/02/03 10:30:31;;;;;;;2.72;1.58;;;17.00;42.30;;;9.14;52.26;97002.13;4975341;28;20061;-58
2023/02/03 10:33:11;;;;;;;4.10;1.40;;;17.30;42.30;;;9.06;53.55;97001.59;4956291;28;20488;-50
2023/02/03 10:35:57;;;;;;;2.08;1.33;;;17.40;41.70;;;9.16;53.95;97000.09;4975745;28;20045;-57
2023/02/03 10:39:01;;;;;;;3.15;1.60;;;17.20;41.70;;;9.02;52.85;96982.63;4991090;28;20026;-52
2023/02/03 10:41:33;;;;;;;3.08;1.40;;;17.10;41.60;;;9.17;54.01;96972.44;4978442;28;20030;-56
2023/02/03 10:44:11;;;;;;;2.97;1.60;;;17.10;41.60;;;8.85;52.78;96973.63;4958999;28;20501;-55
2023/02/03 10:46:42;;;;;;;2.05;1.33;;;17.10;41.10;;;8.66;53.54;96962.16;4974540;28;20080;-52
2023/02/03 10:49:17;;;;;;;3.72;1.33;;;17.00;40.70;;;8.54;53.79;96960.19;4945773;28;20026;-51
2023/02/03 10:51:54;;;;;;;2.15;1.50;;;16.80;40.80;;;8.39;54.68;96964.22;4977663;28;20474;-54
2023/02/03 10:54:37;;;;;;;3.13;1.35;;;16.50;40.70;;;8.47;54.94;96956.00;4975007;28;20038;-55
2023/02/03 10:57:15;;;;;;;3.00;1.50;;;16.20;41.20;;;8.56;54.58;96968.78;4978666;28;20053;-52
2023/02/03 10:59:46;;;;;;;1.90;1.20;;;16.20;41.40;;;8.84;54.32;96967.50;4968564;28;20030;-51
2023/02/03 11:02:29;;;;;;;4.50;1.45;;;16.20;41.50;;;8.76;53.75;96959.81;4977015;28;20022;-52